createdAt,value
2019-06-26T00:40:56.897Z,52.60
2019-06-26T00:43:41.291Z,70.60
2019-06-26T00:45:55.890Z,70.20
2019-06-26T00:48:24.628Z,71.50
2019-06-26T00:50:53.319Z,70.70
2019-06-26T00:53:22.059Z,71.80
2019-06-26T00:55:50.728Z,72.10
2019-06-26T00:58:19.572Z,72.00
2019-06-26T01:00:52.320Z,71.80
2019-06-26T01:03:21.071Z,71.40
2019-06-26T01:05:49.923Z,72.70
2019-06-26T01:08:18.662Z,72.30
2019-06-26T01:10:50.264Z,72.30
2019-06-26T01:13:19.032Z,71.90
2019-06-26T01:15:47.665Z,72.60
2019-06-26T01:18:16.297Z,72.40
2019-06-26T01:20:44.962Z,72.80
2019-06-26T01:23:13.677Z,73.00
2019-06-26T01:25:42.414Z,73.10
2019-06-26T01:28:11.151Z,73.20
2019-06-26T01:30:40.084Z,73.70
2019-06-26T01:33:08.751Z,73.50
2019-06-26T01:35:37.459Z,74.10
2019-06-26T01:38:06.296Z,74.20
2019-06-26T01:40:34.956Z,73.70
2019-06-26T01:43:03.619Z,73.70
2019-06-26T01:45:32.432Z,73.40
2019-06-26T01:48:01.099Z,73.10
2019-06-26T01:50:29.681Z,72.40
2019-06-26T01:52:58.330Z,72.20
2019-06-26T01:55:26.993Z,73.50
2019-06-26T01:57:55.659Z,72.00
2019-06-26T02:00:24.399Z,71.10
2019-06-26T02:02:53.075Z,72.10
2019-06-26T02:05:21.808Z,71.90
2019-06-26T02:07:50.616Z,71.00
2019-06-26T02:10:19.436Z,71.90
2019-06-26T02:12:48.107Z,71.80
2019-06-26T02:15:16.907Z,72.70
2019-06-26T02:17:45.648Z,73.40
2019-06-26T02:20:14.312Z,72.40
2019-06-26T02:22:43.057Z,72.40
2019-06-26T02:25:11.747Z,72.20
2019-06-26T02:27:40.497Z,71.70
2019-06-26T02:30:09.911Z,71.50
2019-06-26T02:32:38.658Z,71.60
2019-06-26T02:35:10.175Z,71.70
2019-06-26T02:37:37.369Z,72.10
2019-06-26T02:40:07.982Z,72.70
2019-06-26T02:42:36.800Z,73.30
2019-06-26T02:45:06.752Z,74.00
2019-06-26T02:47:35.647Z,74.10
2019-06-26T02:50:06.862Z,74.80
2019-06-26T02:52:38.463Z,74.20
2019-06-26T02:55:07.444Z,75.00
2019-06-26T02:57:36.186Z,74.90
2019-06-26T03:00:07.976Z,75.00
2019-06-26T03:02:36.683Z,76.00
2019-06-26T03:05:06.949Z,75.30
2019-06-26T03:07:35.643Z,75.10
2019-06-26T03:10:06.357Z,76.20
2019-06-26T03:12:35.402Z,75.50
2019-06-26T03:15:09.177Z,75.80
2019-06-26T03:17:36.986Z,75.60
2019-06-26T03:20:07.121Z,76.50
2019-06-26T03:22:35.854Z,75.70
2019-06-26T03:25:06.294Z,76.00
2019-06-26T03:27:35.040Z,76.40
2019-06-26T03:30:05.336Z,76.90
2019-06-26T03:32:34.075Z,77.30
2019-06-26T03:35:02.802Z,77.30
2019-06-26T03:37:31.535Z,78.10
2019-06-26T03:40:00.276Z,77.00
2019-06-26T03:42:48.356Z,77.30
2019-06-26T03:45:25.859Z,78.90
2019-06-26T03:47:47.461Z,77.90
2019-06-26T03:50:16.606Z,77.90
2019-06-26T03:52:45.342Z,77.90
2019-06-26T03:55:14.806Z,78.20
2019-06-26T03:57:43.597Z,78.80
2019-06-26T04:00:13.035Z,78.40
2019-06-26T04:02:41.770Z,78.40
2019-06-26T04:05:10.529Z,78.00
2019-06-26T04:07:39.207Z,77.50
2019-06-26T04:10:08.047Z,77.00
2019-06-26T04:12:36.716Z,75.80
2019-06-26T04:15:08.800Z,76.20
2019-06-26T04:17:37.474Z,75.60
2019-06-26T04:20:07.110Z,75.60
2019-06-26T04:22:35.879Z,75.80
2019-06-26T04:25:07.743Z,75.30
2019-06-26T04:27:36.403Z,74.30
2019-06-26T04:30:07.617Z,73.90
2019-06-26T04:32:36.263Z,73.00
2019-06-26T04:35:06.379Z,73.10
2019-06-26T04:37:35.034Z,73.40
2019-06-26T04:40:05.632Z,73.40
2019-06-26T04:42:34.282Z,73.30
2019-06-26T04:45:03.024Z,73.60
2019-06-26T04:47:31.686Z,73.50
2019-06-26T04:50:00.434Z,74.20
2019-06-26T04:52:29.101Z,74.30
2019-06-26T04:54:57.842Z,74.10
2019-06-26T04:57:26.602Z,74.20
2019-06-26T04:59:55.343Z,74.20
2019-06-26T05:02:24.007Z,74.10
2019-06-26T05:04:52.811Z,74.10
2019-06-26T05:07:21.456Z,74.10
2019-06-26T05:09:50.183Z,74.50
2019-06-26T05:12:18.807Z,72.90
2019-06-26T05:14:47.440Z,70.00
2019-06-26T05:17:17.116Z,67.60
2019-06-26T05:19:45.774Z,67.90
2019-06-26T05:22:14.590Z,69.20
2019-06-26T05:25:02.604Z,70.10
2019-06-26T05:27:31.275Z,71.30
2019-06-26T05:30:00.006Z,69.00
2019-06-26T05:32:29.017Z,69.30
2019-06-26T05:34:57.740Z,69.60
2019-06-26T05:37:26.642Z,70.10
2019-06-26T05:39:55.375Z,71.00
2019-06-26T05:42:24.111Z,70.50
2019-06-26T05:45:12.101Z,70.30
2019-06-26T05:47:41.043Z,71.00
2019-06-26T05:50:10.987Z,71.60
2019-06-26T05:52:42.479Z,71.30
2019-06-26T05:55:12.754Z,68.70
2019-06-26T05:57:43.578Z,67.00
2019-06-26T06:00:14.436Z,67.40
2019-06-26T06:02:43.178Z,68.50
2019-06-26T06:05:14.318Z,68.10
2019-06-26T06:07:43.018Z,68.20
2019-06-26T06:10:13.403Z,68.60
2019-06-26T06:12:42.177Z,68.90
2019-06-26T06:15:11.380Z,69.30
2019-06-26T06:17:40.138Z,68.60
2019-06-26T06:20:09.392Z,68.60
2019-06-26T06:22:38.048Z,68.50
2019-06-26T06:25:07.791Z,68.00
2019-06-26T06:27:36.522Z,68.00
2019-06-26T06:30:08.719Z,68.90
2019-06-26T06:32:37.310Z,68.10
2019-06-26T06:35:07.574Z,66.70
2019-06-26T06:37:36.207Z,66.00
2019-06-26T06:40:08.625Z,66.00
2019-06-26T06:42:37.282Z,66.00
2019-06-26T06:45:07.935Z,64.90
2019-06-26T06:47:36.735Z,64.40
2019-06-26T06:50:08.197Z,65.00
2019-06-26T06:52:36.852Z,64.30
2019-06-26T06:55:10.187Z,63.20
2019-06-26T07:00:08.178Z,63.00
2019-06-26T07:02:39.175Z,61.70
2019-06-26T07:05:08.710Z,61.30
2019-06-26T07:07:38.889Z,60.90
2019-06-26T07:10:08.226Z,60.70
2019-06-26T07:27:28.799Z,61.10
2019-06-26T07:29:57.611Z,56.40
2019-06-26T07:32:26.347Z,54.90
2019-06-26T07:34:55.021Z,53.60
2019-06-26T14:48:21.983Z,52.90
2019-06-26T14:50:50.647Z,44.50
2019-06-26T14:53:19.332Z,44.20
2019-06-26T14:55:47.955Z,44.20
2019-06-26T14:58:16.709Z,44.30
2019-06-26T15:00:45.442Z,44.50
2019-06-26T15:03:14.110Z,44.60
2019-06-26T15:05:42.867Z,44.00
2019-06-26T15:08:11.624Z,44.50
2019-06-26T15:10:40.302Z,44.50
2019-06-26T15:13:08.968Z,44.70
2019-06-26T15:15:37.706Z,44.50
2019-06-26T15:18:06.449Z,45.20
2019-06-26T15:20:35.186Z,45.00
2019-06-26T15:23:05.065Z,45.40
2019-06-26T15:25:33.694Z,45.00
2019-06-26T15:28:02.383Z,45.00
2019-06-26T15:30:31.106Z,45.10
2019-06-26T15:32:59.882Z,44.90
2019-06-26T15:35:30.446Z,45.60
2019-06-26T15:37:59.099Z,45.10
2019-06-26T15:40:27.781Z,45.60
2019-06-26T15:42:56.483Z,45.20
2019-06-26T15:45:25.136Z,45.10
2019-06-26T15:47:53.804Z,45.00
2019-06-26T15:50:22.744Z,43.20
2019-06-26T15:52:51.431Z,42.80
2019-06-26T15:55:20.171Z,42.70
2019-06-26T15:57:48.953Z,43.10
2019-06-26T16:00:17.887Z,42.30
2019-06-26T16:02:46.582Z,41.70
2019-06-26T16:05:16.511Z,41.60
2019-06-26T16:07:45.340Z,41.90
2019-06-26T16:10:14.584Z,41.40
2019-06-26T16:12:43.264Z,41.60
2019-06-26T16:15:12.663Z,41.40
2019-06-26T16:17:45.502Z,41.40
2019-06-26T16:20:14.451Z,41.00
2019-06-26T16:22:43.127Z,41.70
2019-06-26T16:25:11.859Z,41.30
2019-06-26T16:27:40.600Z,41.10
2019-06-26T16:30:09.500Z,41.40
2019-06-26T16:32:38.171Z,41.10
2019-06-26T16:35:07.431Z,41.60
2019-06-26T16:37:36.171Z,41.20
2019-06-26T16:40:09.094Z,41.20
2019-06-26T16:42:37.803Z,41.70
2019-06-26T16:45:07.258Z,40.50
2019-06-26T16:47:36.007Z,40.60
2019-06-26T16:50:05.940Z,41.00
2019-06-26T16:52:48.000Z,40.90
2019-06-26T16:55:06.616Z,40.90
2019-06-26T16:57:35.428Z,41.00
2019-06-26T17:00:10.469Z,40.80
2019-06-26T17:02:39.353Z,42.30
2019-06-26T17:05:08.470Z,41.40
2019-06-26T17:07:37.213Z,41.30
2019-06-26T17:10:08.733Z,41.40
2019-06-26T17:12:37.556Z,41.20
2019-06-26T17:15:09.656Z,41.40
2019-06-26T17:17:38.395Z,41.80
2019-06-26T17:20:07.541Z,41.90
2019-06-26T17:22:36.288Z,41.90
2019-06-26T17:25:06.715Z,41.80
2019-06-26T17:27:35.394Z,41.70
2019-06-26T17:30:08.749Z,41.60
2019-06-26T17:32:37.419Z,41.70
2019-06-26T17:35:07.049Z,41.90
2019-06-26T17:37:35.795Z,42.10
2019-06-26T17:40:05.744Z,42.50
2019-06-26T17:42:34.411Z,41.70
2019-06-26T17:45:04.111Z,41.60
2019-06-26T17:47:32.712Z,41.80
2019-06-26T17:50:01.462Z,42.10
2019-06-26T17:52:33.820Z,42.30
2019-06-26T18:49:25.946Z,42.80
2019-06-26T18:51:54.692Z,47.40
2019-06-26T18:54:23.278Z,48.80
2019-06-26T18:56:52.031Z,50.00
2019-06-26T18:59:20.698Z,50.60
2019-06-26T19:01:49.436Z,50.90
2019-06-26T19:04:18.272Z,51.70
2019-06-26T19:06:47.031Z,50.90
2019-06-26T19:09:15.624Z,51.20
2019-06-26T19:11:44.368Z,51.40
2019-06-26T19:14:12.963Z,52.00
2019-06-26T19:16:41.699Z,52.50
2019-06-26T19:19:12.362Z,53.20
2019-06-26T19:21:40.839Z,53.90
2019-06-26T19:24:10.769Z,54.10
2019-06-26T19:26:39.718Z,55.20
2019-06-26T19:29:08.458Z,55.90
2019-06-26T19:31:37.204Z,56.60
2019-06-26T19:34:05.975Z,56.80
2019-06-26T19:36:49.051Z,57.00
2019-06-26T19:39:07.012Z,57.70
2019-06-26T19:41:35.680Z,58.20
2019-06-26T19:44:04.521Z,58.70
2019-06-26T19:46:33.224Z,59.30
2019-06-26T19:49:01.925Z,60.30
2019-06-26T19:51:31.271Z,61.00
2019-06-26T19:54:00.020Z,61.70
2019-06-26T19:56:28.720Z,63.90
2019-06-26T19:58:57.475Z,66.70
2019-06-26T20:01:26.195Z,68.70
2019-06-26T20:06:23.279Z,70.40
2019-06-26T20:08:56.405Z,75.10
2019-06-26T20:11:22.404Z,76.50
2019-06-26T20:13:51.205Z,77.60
2019-06-26T22:45:29.237Z,86.50
2019-06-26T22:47:57.897Z,99.90
2019-06-26T22:50:26.622Z,99.90
2019-06-26T22:52:55.408Z,99.90
2019-06-26T22:55:24.151Z,99.90
2019-06-26T22:57:52.841Z,99.90
2019-06-26T23:00:21.738Z,99.90
2019-06-26T23:02:50.405Z,99.90
2019-06-26T23:05:19.151Z,99.90
2019-06-26T23:07:47.846Z,99.90
2019-06-26T23:10:16.900Z,99.90
2019-06-26T23:12:45.714Z,99.90
2019-06-26T23:15:14.609Z,99.90
2019-06-26T23:17:43.323Z,99.90
2019-06-26T23:20:12.334Z,99.90
